首页
METAR-TAF:

METAR-TAF

机场 :

拉纳卡国际机场

拉纳卡, 塞浦路斯

纬度: 34-53N, 经度: 033-38E, 海拔: 2米

当前天气观测

该预报发布于15分钟前的08:30 UTC
风速9节,风向东南
温度 33°C
湿度 41%
气压 1005 hPa
能见度10公里或以上
1500米以下无云,无积雨云

METAR: LCLK 140830Z 14009KT CAVOK 33/18 Q1005 NOSIG

时间: 11:45 (08:45 UTC)

预报

该预报发布于3小时和15分钟前的05:30 UTC
预报有效从14日的 06点(UTC)到 15日的 06点(UTC)
风速7节,风向南转南东
能见度10公里或以上
少量云层高于2500英尺
成为
从 14日的 08点(UTC)到 14日的 11点(UTC)
风速18节,风向西南
成为
从 14日的 16点(UTC)到 14日的 19点(UTC)
风速7节,风向西北

TAF: LCLK 140530Z 1406/1506 15007KT 9999 FEW025 BECMG 1408/1411 22018KT BECMG 1416/1419 32007KT

超过4000个机场的气象观测和天气预报(METAR&TAF报告)。

可查询的气象台以黄色和红色小点在地图上表示。

将鼠标移到小点上方,可查看气象台名称。

然后点击查看天气观测和预报。

如需切换地图:点击带黑十字的绿色按钮放大地图;点击带横线的绿色按钮缩小地图;或者点击绿色箭头查看邻近地区的地图。


METAR-TAF: